createdAt,value
2022-08-20T00:00:50.646Z,5.20
2022-08-20T00:03:40.136Z,4.43
2022-08-20T00:06:17.238Z,6.07
2022-08-20T00:08:46.093Z,3.42
2022-08-20T00:11:19.929Z,3.17
2022-08-20T00:13:50.662Z,5.80
2022-08-20T00:16:21.411Z,5.05
2022-08-20T00:18:49.584Z,9.27
2022-08-20T00:21:19.431Z,3.40
2022-08-20T00:23:50.129Z,5.75
2022-08-20T00:26:18.459Z,7.13
2022-08-20T00:28:48.269Z,6.18
2022-08-20T00:31:21.537Z,4.57
2022-08-20T00:36:32.677Z,4.43
2022-08-20T00:39:01.340Z,4.82
2022-08-20T00:41:34.976Z,7.45
2022-08-20T00:44:22.496Z,7.13
2022-08-20T00:46:53.619Z,6.40
2022-08-20T00:49:30.492Z,3.92
2022-08-20T00:52:08.374Z,6.03
2022-08-20T00:54:49.874Z,7.05
2022-08-20T00:58:00.871Z,4.45
2022-08-20T01:00:34.006Z,5.70
2022-08-20T01:03:01.936Z,4.47
2022-08-20T01:05:29.885Z,4.05
2022-08-20T01:10:51.266Z,7.43
2022-08-20T01:13:23.904Z,3.65
2022-08-20T01:19:29.424Z,7.80
2022-08-20T01:21:59.778Z,3.75
2022-08-20T01:24:41.485Z,4.35
2022-08-20T01:27:10.902Z,3.20
2022-08-20T01:29:40.574Z,4.10
2022-08-20T01:32:10.899Z,3.50
2022-08-20T01:35:39.960Z,4.93
2022-08-20T01:38:11.534Z,4.80
2022-08-20T01:41:03.855Z,5.95
2022-08-20T01:43:32.283Z,6.35
2022-08-20T01:46:16.388Z,4.90
2022-08-20T01:48:48.024Z,4.05
2022-08-20T01:51:29.990Z,7.25
2022-08-20T01:53:59.833Z,5.53
2022-08-20T01:56:32.283Z,4.30
2022-08-20T01:59:08.622Z,5.18
2022-08-20T02:01:46.617Z,6.88
2022-08-20T02:04:18.180Z,5.45
2022-08-20T02:06:56.875Z,4.30
2022-08-20T02:09:37.836Z,4.28
2022-08-20T02:12:10.760Z,5.13
2022-08-20T02:14:47.097Z,4.28
2022-08-20T02:17:18.913Z,4.30
2022-08-20T02:19:59.223Z,2.75
2022-08-20T02:22:30.109Z,3.72
2022-08-20T02:24:57.438Z,3.55
2022-08-20T02:27:31.993Z,3.80
2022-08-20T02:30:30.129Z,5.07
2022-08-20T02:32:59.185Z,4.05
2022-08-20T02:35:27.209Z,3.83
2022-08-20T02:37:55.177Z,3.47
2022-08-20T02:40:27.144Z,5.53
2022-08-20T02:43:01.599Z,4.35
2022-08-20T02:45:31.273Z,4.13
2022-08-20T02:47:59.359Z,3.55
2022-08-20T02:50:27.770Z,4.70
2022-08-20T02:52:55.157Z,3.35
2022-08-20T02:55:27.816Z,4.38
2022-08-20T02:58:36.474Z,4.90
2022-08-20T03:01:06.437Z,5.47
2022-08-20T03:03:34.371Z,3.20
2022-08-20T03:06:05.259Z,3.08
2022-08-20T03:12:11.362Z,4.07
2022-08-20T03:14:38.856Z,5.20
2022-08-20T03:17:31.868Z,4.57
2022-08-20T03:20:04.049Z,3.53
2022-08-20T03:22:31.554Z,4.00
2022-08-20T03:25:07.295Z,3.80
2022-08-20T03:27:36.534Z,3.30
2022-08-20T03:30:27.107Z,4.00
2022-08-20T03:33:22.751Z,4.35
2022-08-20T03:35:52.165Z,5.18
2022-08-20T03:38:32.341Z,3.97
2022-08-20T03:41:34.864Z,4.28
2022-08-20T03:44:06.749Z,4.40
2022-08-20T03:46:53.909Z,2.72
2022-08-20T03:49:24.907Z,5.18
2022-08-20T03:52:29.653Z,7.60
2022-08-20T03:54:57.074Z,4.63
2022-08-20T04:01:45.966Z,5.72
2022-08-20T04:04:14.913Z,3.72
2022-08-20T04:06:48.713Z,3.15
2022-08-20T04:09:18.661Z,4.85
2022-08-20T04:11:46.011Z,3.83
2022-08-20T04:14:18.666Z,3.25
2022-08-20T04:16:49.119Z,2.85
2022-08-20T04:19:18.019Z,3.80
2022-08-20T04:21:48.602Z,4.18
2022-08-20T04:24:22.731Z,7.88
2022-08-20T04:26:58.987Z,5.32
2022-08-20T04:29:32.650Z,4.25
2022-08-20T04:32:26.967Z,4.72
2022-08-20T04:34:54.579Z,2.65
2022-08-20T04:37:22.921Z,4.40
2022-08-20T04:40:09.266Z,3.40
2022-08-20T04:45:11.349Z,2.90
2022-08-20T04:47:38.668Z,3.97
2022-08-20T04:50:25.325Z,4.75
2022-08-20T04:52:53.529Z,8.88
2022-08-20T04:55:21.027Z,5.32
2022-08-20T04:57:50.819Z,7.93
2022-08-20T05:00:18.212Z,7.05
2022-08-20T05:02:45.514Z,4.88
2022-08-20T05:05:15.307Z,5.80
2022-08-20T05:07:48.000Z,4.22
2022-08-20T05:10:18.450Z,2.60
2022-08-20T05:12:56.667Z,4.18
2022-08-20T05:15:26.047Z,4.15
2022-08-20T05:18:07.492Z,3.17
2022-08-20T05:20:40.259Z,3.38
2022-08-20T05:23:12.830Z,4.85
2022-08-20T05:25:41.890Z,3.22
2022-08-20T05:28:13.076Z,3.92
2022-08-20T05:30:45.008Z,7.40
2022-08-20T05:33:19.712Z,4.35
2022-08-20T05:35:52.724Z,2.90
2022-08-20T05:38:24.241Z,3.65
2022-08-20T05:40:52.568Z,6.25
2022-08-20T05:43:22.867Z,5.53
2022-08-20T05:45:56.519Z,5.03
2022-08-20T05:48:25.420Z,4.00
2022-08-20T05:50:54.464Z,4.57
2022-08-20T05:53:25.488Z,2.58
2022-08-20T05:55:53.478Z,3.38
2022-08-20T05:58:24.444Z,4.18
2022-08-20T06:01:17.972Z,5.75
2022-08-20T06:06:47.305Z,5.78
2022-08-20T06:09:27.921Z,3.88
2022-08-20T06:14:41.476Z,4.13
2022-08-20T06:17:15.592Z,5.10
2022-08-20T06:19:46.952Z,2.83
2022-08-20T06:22:27.287Z,2.63
2022-08-20T06:24:56.346Z,3.92
2022-08-20T06:27:26.476Z,2.45
2022-08-20T06:30:18.857Z,2.63
2022-08-20T06:32:53.383Z,3.28
2022-08-20T06:35:34.785Z,4.25
2022-08-20T06:38:02.269Z,6.13
2022-08-20T06:40:34.268Z,3.72
2022-08-20T06:43:01.922Z,3.42
2022-08-20T06:45:32.656Z,3.60
2022-08-20T06:48:06.186Z,5.00
2022-08-20T06:50:47.098Z,5.55
2022-08-20T06:53:18.509Z,3.90
2022-08-20T06:55:50.298Z,5.78
2022-08-20T06:58:37.895Z,3.13
2022-08-20T07:01:10.834Z,4.97
2022-08-20T07:03:54.129Z,5.93
2022-08-20T07:06:26.711Z,4.03
2022-08-20T07:08:55.696Z,7.93
2022-08-20T07:11:28.241Z,4.47
2022-08-20T07:13:58.991Z,4.43
2022-08-20T07:16:27.557Z,5.25
2022-08-20T07:18:58.099Z,4.13
2022-08-20T07:21:25.743Z,4.15
2022-08-20T07:23:53.101Z,1.92
2022-08-20T07:26:32.484Z,4.50
2022-08-20T07:29:02.220Z,3.40
2022-08-20T07:31:50.692Z,4.45
2022-08-20T07:34:18.100Z,4.07
2022-08-20T07:36:48.843Z,3.70
2022-08-20T07:39:16.734Z,3.80
2022-08-20T07:41:56.405Z,3.70
2022-08-20T07:44:29.185Z,2.75
2022-08-20T07:46:59.479Z,2.93
2022-08-20T07:49:26.848Z,4.88
2022-08-20T07:51:54.177Z,6.97
2022-08-20T07:54:21.517Z,3.85
2022-08-20T07:56:49.603Z,3.42
2022-08-20T07:59:17.175Z,4.13
2022-08-20T08:01:44.489Z,4.25
2022-08-20T08:04:12.052Z,5.50
2022-08-20T08:09:34.069Z,2.80
2022-08-20T08:12:03.292Z,3.53
2022-08-20T08:14:35.677Z,3.90
2022-08-20T08:17:04.724Z,4.30
2022-08-20T08:19:38.830Z,5.88
2022-08-20T08:22:12.352Z,5.85
2022-08-20T08:28:04.132Z,4.45
2022-08-20T08:30:31.927Z,3.20
2022-08-20T08:33:17.983Z,5.55
2022-08-20T08:35:47.897Z,4.13
2022-08-20T08:38:17.898Z,4.40
2022-08-20T08:40:46.224Z,3.78
2022-08-20T08:46:06.911Z,3.13
2022-08-20T08:49:00.962Z,3.05
2022-08-20T08:51:51.492Z,3.80
2022-08-20T08:54:26.632Z,4.97
2022-08-20T08:56:54.807Z,2.70
2022-08-20T08:59:23.284Z,5.07
2022-08-20T09:01:57.133Z,3.45
2022-08-20T09:07:28.708Z,2.88
2022-08-20T09:10:00.326Z,3.22
2022-08-20T09:12:30.199Z,4.13
2022-08-20T09:14:58.797Z,7.40
2022-08-20T09:17:26.499Z,7.55
2022-08-20T09:19:53.981Z,3.65
2022-08-20T09:22:27.578Z,5.43
2022-08-20T09:24:56.268Z,3.75
2022-08-20T09:27:23.635Z,5.53
2022-08-20T09:29:53.468Z,2.55
2022-08-20T09:32:23.496Z,2.92
2022-08-20T09:34:56.934Z,3.60
2022-08-20T09:37:42.261Z,2.53
2022-08-20T09:40:11.893Z,3.45
2022-08-20T09:42:41.692Z,3.90
2022-08-20T09:45:11.293Z,4.38
2022-08-20T09:47:54.812Z,3.63
2022-08-20T09:50:32.143Z,3.10
2022-08-20T09:53:10.001Z,2.60
2022-08-20T09:55:45.188Z,3.78
2022-08-20T09:58:53.037Z,5.15
2022-08-20T10:01:24.977Z,2.33
2022-08-20T10:03:55.967Z,3.97
2022-08-20T10:06:27.575Z,1.98
2022-08-20T10:09:01.737Z,3.65
2022-08-20T10:11:30.151Z,3.55
2022-08-20T10:14:01.691Z,4.82
2022-08-20T10:16:29.229Z,3.78
2022-08-20T10:18:57.902Z,2.33
2022-08-20T10:21:25.272Z,3.42
2022-08-20T10:23:52.682Z,3.70
2022-08-20T10:26:20.062Z,2.38
2022-08-20T10:28:47.445Z,3.47
2022-08-20T10:31:15.611Z,2.80
2022-08-20T10:33:43.259Z,2.95
2022-08-20T10:36:13.414Z,2.75
2022-08-20T10:38:43.036Z,1.63
2022-08-20T10:41:14.794Z,2.75
2022-08-20T10:43:47.969Z,2.53
2022-08-20T10:46:16.614Z,3.83
2022-08-20T10:48:44.522Z,1.70
2022-08-20T10:51:12.479Z,3.30
2022-08-20T10:53:41.072Z,3.65
2022-08-20T10:56:18.410Z,1.88
2022-08-20T10:58:55.163Z,0.65
2022-08-20T11:01:37.508Z,2.90
2022-08-20T11:04:06.642Z,1.63
2022-08-20T11:06:39.011Z,1.55
2022-08-20T11:09:14.274Z,1.98
2022-08-20T11:12:12.901Z,2.47
2022-08-20T11:18:04.277Z,1.73
2022-08-20T11:23:35.269Z,1.70
2022-08-20T11:28:44.813Z,1.85
2022-08-20T11:31:34.953Z,0.85
2022-08-20T11:34:12.901Z,1.40
2022-08-20T11:37:20.635Z,4.63
2022-08-20T11:40:13.654Z,2.17
2022-08-20T11:43:17.754Z,1.63
2022-08-20T11:45:58.633Z,1.88
2022-08-20T11:48:33.170Z,2.25
2022-08-20T11:59:53.890Z,0.70
2022-08-20T12:01:25.083Z,1.15
2022-08-20T12:04:06.023Z,0.68
2022-08-20T12:06:45.636Z,1.95
2022-08-20T12:09:31.430Z,2.50
2022-08-20T12:12:10.118Z,1.25
2022-08-20T12:14:41.146Z,0.65
2022-08-20T12:17:18.141Z,2.97
2022-08-20T12:19:50.505Z,1.52
2022-08-20T12:25:09.470Z,1.95
2022-08-20T12:27:39.471Z,2.03
2022-08-20T12:30:16.991Z,2.00
2022-08-20T12:32:44.830Z,1.83
2022-08-20T12:35:14.431Z,0.65
2022-08-20T12:37:48.700Z,3.15
2022-08-20T12:40:32.377Z,0.80
2022-08-20T12:43:06.989Z,1.80
2022-08-20T12:45:38.376Z,1.25
2022-08-20T12:48:09.668Z,2.15
2022-08-20T12:50:39.245Z,2.10
2022-08-20T12:53:07.212Z,1.85
2022-08-20T12:55:35.482Z,2.00
2022-08-20T12:58:08.070Z,0.40
2022-08-20T13:00:44.946Z,0.80
2022-08-20T13:03:33.375Z,0.80
2022-08-20T13:06:15.434Z,2.08
2022-08-20T13:08:45.219Z,0.55
2022-08-20T13:11:40.351Z,1.95
2022-08-20T13:14:10.627Z,0.95
2022-08-20T13:16:38.500Z,0.50
2022-08-20T13:19:12.486Z,1.05
2022-08-20T13:21:41.943Z,2.10
2022-08-20T13:24:09.833Z,0.88
2022-08-20T13:26:37.492Z,0.40
2022-08-20T13:29:05.852Z,0.70
2022-08-20T13:31:42.899Z,0.52
2022-08-20T13:34:10.807Z,0.75
2022-08-20T13:36:38.694Z,0.70
2022-08-20T13:39:07.596Z,0.47
2022-08-20T13:41:35.023Z,0.40
2022-08-20T13:44:02.620Z,1.10
2022-08-20T13:46:29.993Z,0.50
2022-08-20T13:49:22.542Z,1.05
2022-08-20T13:51:52.211Z,0.52
2022-08-20T13:54:30.373Z,0.50
2022-08-20T13:57:08.729Z,0.60
2022-08-20T13:59:42.043Z,0.40
2022-08-20T14:02:11.025Z,0.90
2022-08-20T14:04:41.203Z,0.43
2022-08-20T14:07:12.387Z,2.30
2022-08-20T14:09:48.722Z,0.50
2022-08-20T14:12:23.609Z,1.33
2022-08-20T14:17:30.147Z,0.50
2022-08-20T14:20:17.338Z,0.60
2022-08-20T14:22:50.826Z,1.38
2022-08-20T14:25:19.984Z,0.90
2022-08-20T14:27:47.925Z,1.08
2022-08-20T14:30:19.448Z,1.48
2022-08-20T14:32:47.337Z,0.50
2022-08-20T14:35:15.395Z,1.00
2022-08-20T14:41:22.506Z,1.42
2022-08-20T14:44:15.539Z,0.90
2022-08-20T14:46:43.074Z,1.45
2022-08-20T14:49:10.632Z,0.60
2022-08-20T14:51:38.836Z,1.38
2022-08-20T14:57:33.808Z,1.30
2022-08-20T15:00:01.908Z,3.10
2022-08-20T15:02:42.328Z,1.25
2022-08-20T15:05:13.239Z,1.55
2022-08-20T15:07:46.063Z,0.68
2022-08-20T15:10:20.539Z,0.45
2022-08-20T15:12:50.960Z,1.10
2022-08-20T15:18:26.753Z,0.88
2022-08-20T15:20:54.424Z,0.60
2022-08-20T15:23:23.953Z,0.82
2022-08-20T15:26:02.962Z,0.85
2022-08-20T15:28:30.443Z,0.60
2022-08-20T15:30:57.935Z,1.15
2022-08-20T15:33:25.619Z,0.63
2022-08-20T15:35:53.175Z,0.65
2022-08-20T15:38:20.636Z,0.63
2022-08-20T15:40:49.428Z,1.02
2022-08-20T15:43:16.777Z,0.82
2022-08-20T15:45:44.227Z,1.10
2022-08-20T15:48:18.418Z,1.23
2022-08-20T15:51:06.926Z,1.97
2022-08-20T15:53:43.115Z,1.98
2022-08-20T15:56:33.797Z,1.95
2022-08-20T15:59:27.418Z,2.08
2022-08-20T16:02:09.830Z,2.22
2022-08-20T16:04:52.351Z,2.08
2022-08-20T16:07:48.647Z,2.67
2022-08-20T16:10:47.267Z,0.70
2022-08-20T16:13:57.553Z,1.30
2022-08-20T16:17:09.550Z,1.02
2022-08-20T16:20:02.231Z,2.95
2022-08-20T16:22:31.386Z,2.65
2022-08-20T16:24:58.737Z,2.45
2022-08-20T16:27:35.010Z,1.42
2022-08-20T16:30:15.562Z,1.23
2022-08-20T16:32:48.885Z,1.95
2022-08-20T16:35:38.815Z,2.08
2022-08-20T16:38:46.321Z,8.65
2022-08-20T16:41:27.024Z,1.60
2022-08-20T16:44:30.002Z,3.95
2022-08-20T16:47:07.906Z,2.13
2022-08-20T16:49:57.748Z,3.40
2022-08-20T16:52:28.222Z,1.33
2022-08-20T16:54:58.273Z,2.08
2022-08-20T16:58:28.143Z,2.83
2022-08-20T17:00:45.218Z,1.70
2022-08-20T17:04:07.396Z,3.58
2022-08-20T17:06:46.853Z,2.75
2022-08-20T17:09:38.141Z,3.28
2022-08-20T17:15:35.630Z,2.72
2022-08-20T17:18:30.566Z,2.30
2022-08-20T17:21:36.703Z,1.90
2022-08-20T17:24:34.215Z,1.85
2022-08-20T17:38:07.210Z,1.30
2022-08-20T17:41:47.036Z,2.08
2022-08-20T17:44:39.420Z,3.10
2022-08-20T17:47:12.809Z,2.38
2022-08-20T17:50:01.277Z,2.10
2022-08-20T17:52:53.012Z,2.65
2022-08-20T17:55:21.219Z,1.23
2022-08-20T17:58:17.585Z,4.50
2022-08-20T18:01:13.230Z,0.88
2022-08-20T18:03:41.826Z,3.33
2022-08-20T18:06:29.863Z,0.80
2022-08-20T18:09:07.319Z,1.08
2022-08-20T18:11:59.094Z,1.08
2022-08-20T18:14:31.842Z,4.97
2022-08-20T18:17:17.025Z,2.90
2022-08-20T18:20:10.372Z,2.92
2022-08-20T18:22:59.649Z,2.17
2022-08-20T18:25:47.373Z,2.33
2022-08-20T18:28:41.391Z,1.30
2022-08-20T18:31:10.538Z,3.58
2022-08-20T18:33:46.798Z,2.88
2022-08-20T18:36:20.199Z,2.92
2022-08-20T18:39:07.588Z,3.72
2022-08-20T18:41:55.819Z,1.77
2022-08-20T18:44:41.765Z,2.05
2022-08-20T18:47:57.930Z,2.13
2022-08-20T18:50:45.990Z,2.00
2022-08-20T18:53:33.895Z,4.00
2022-08-20T18:56:06.333Z,3.40
2022-08-20T18:58:47.733Z,3.00
2022-08-20T19:01:19.152Z,1.80
2022-08-20T19:03:51.574Z,3.88
2022-08-20T19:06:28.731Z,3.28
2022-08-20T19:09:13.098Z,1.30
2022-08-20T19:12:02.833Z,1.73
2022-08-20T19:15:04.084Z,2.47
2022-08-20T19:18:18.048Z,5.25
2022-08-20T19:20:57.791Z,2.17
2022-08-20T19:23:28.103Z,6.13
2022-08-20T19:26:01.422Z,5.40
2022-08-20T19:28:39.828Z,3.85
2022-08-20T19:31:16.805Z,3.42
2022-08-20T19:33:46.710Z,8.23
2022-08-20T19:36:28.312Z,8.20
2022-08-20T19:38:59.299Z,5.18
2022-08-20T19:41:37.089Z,6.30
2022-08-20T19:44:07.647Z,5.50
2022-08-20T19:46:46.011Z,5.85
2022-08-20T19:49:50.925Z,6.28
2022-08-20T19:52:51.792Z,4.95
2022-08-20T19:55:30.341Z,3.50
2022-08-20T19:58:01.899Z,2.70
2022-08-20T20:00:38.955Z,3.33
2022-08-20T20:03:24.390Z,4.05
2022-08-20T20:05:57.702Z,3.20
2022-08-20T20:08:38.490Z,2.42
2022-08-20T20:11:06.425Z,2.65
2022-08-20T20:13:35.990Z,3.67
2022-08-20T20:16:07.274Z,3.65
2022-08-20T20:18:39.459Z,1.80
2022-08-20T20:21:25.671Z,4.75
2022-08-20T20:23:58.210Z,4.72
2022-08-20T20:26:35.569Z,6.50
2022-08-20T20:29:48.209Z,4.40
2022-08-20T20:32:20.532Z,5.43
2022-08-20T20:35:23.081Z,3.17
2022-08-20T20:41:54.640Z,4.07
2022-08-20T20:44:28.663Z,5.00
2022-08-20T20:47:02.065Z,4.75
2022-08-20T20:55:51.617Z,3.95
2022-08-20T20:58:30.794Z,5.35
2022-08-20T21:01:45.702Z,5.95
2022-08-20T21:04:12.560Z,4.28
2022-08-20T21:06:49.249Z,2.65
2022-08-20T21:12:53.143Z,2.38
2022-08-20T21:15:29.321Z,3.38
2022-08-20T21:18:08.162Z,3.45
2022-08-20T21:20:45.341Z,1.77
2022-08-20T21:23:13.230Z,2.40
2022-08-20T21:25:40.606Z,1.30
2022-08-20T21:28:08.443Z,1.63
2022-08-20T21:30:38.509Z,1.20
2022-08-20T21:33:08.254Z,3.47
2022-08-20T21:35:35.664Z,2.95
2022-08-20T21:38:03.149Z,2.63
2022-08-20T21:40:30.773Z,3.80
2022-08-20T21:43:29.545Z,2.13
2022-08-20T21:46:01.499Z,2.33
2022-08-20T21:48:39.803Z,2.30
2022-08-20T21:51:09.710Z,2.30
2022-08-20T21:53:39.149Z,7.47
2022-08-20T21:56:08.064Z,4.43
2022-08-20T21:58:37.538Z,2.33
2022-08-20T22:01:08.353Z,2.78
2022-08-20T22:03:38.657Z,3.15
2022-08-20T22:06:08.704Z,3.40
2022-08-20T22:08:48.330Z,2.47
2022-08-20T22:11:16.354Z,2.30
2022-08-20T22:13:50.404Z,2.60
2022-08-20T22:16:20.154Z,2.80
2022-08-20T22:18:49.370Z,2.67
2022-08-20T22:21:38.497Z,3.13
2022-08-20T22:24:09.626Z,2.92
2022-08-20T22:26:40.556Z,1.50
2022-08-20T22:29:10.052Z,1.92
2022-08-20T22:31:40.349Z,1.80
2022-08-20T22:34:10.264Z,2.05
2022-08-20T22:36:37.805Z,2.08
2022-08-20T22:39:07.721Z,3.47
2022-08-20T22:41:56.791Z,1.73
2022-08-20T22:44:49.881Z,2.15
2022-08-20T22:47:20.786Z,2.65
2022-08-20T22:49:59.117Z,2.35
2022-08-20T22:52:28.935Z,1.60
2022-08-20T22:54:58.409Z,2.25
2022-08-20T22:57:29.467Z,1.42
2022-08-20T23:00:47.873Z,4.38
2022-08-20T23:03:39.733Z,3.97
2022-08-20T23:07:18.138Z,1.30
2022-08-20T23:12:31.561Z,2.47
2022-08-20T23:14:59.050Z,3.35
2022-08-20T23:17:31.062Z,2.33
2022-08-20T23:20:41.261Z,1.95
2022-08-20T23:24:14.361Z,4.35
2022-08-20T23:27:10.181Z,3.27
2022-08-20T23:40:51.977Z,2.92
2022-08-20T23:44:25.006Z,1.42
2022-08-20T23:51:08.913Z,2.30
